Time;durP1;ratioP1;P1;durP2;ratioP2;P2;SDS_P1;SDS_P2;PMS_P1;PMS_P2;Temp;Humidity;BMP_temperature;BMP_pressure;BME280_temperature;BME280_humidity;BME280_pressure;Samples;Min_cycle;Max_cycle;Signal;HPM_P1;HPM_P2
2023/10/04 00:00:59;;;;;;;3.17;2.15;;;;;;;10.19;100.00;101733.47;5024366;28;20127;-74
2023/10/04 00:03:28;;;;;;;8.02;2.20;;;;;;;10.14;100.00;101725.88;5057772;28;20036;-74
2023/10/04 00:05:54;;;;;;;4.75;1.88;;;;;;;10.06;100.00;101720.41;5057305;28;20098;-74
2023/10/04 00:08:20;;;;;;;9.25;2.40;;;;;;;10.03;100.00;101731.44;5040870;28;20485;-73
2023/10/04 00:10:46;;;;;;;9.65;1.70;;;;;;;10.04;100.00;101720.56;5041113;28;20032;-75
2023/10/04 00:13:13;;;;;;;5.20;2.00;;;;;;;10.08;100.00;101724.66;5057208;28;20033;-74
2023/10/04 00:15:39;;;;;;;5.63;2.03;;;;;;;10.13;100.00;101711.63;5057246;28;20040;-73
2023/10/04 00:18:06;;;;;;;7.43;2.25;;;;;;;10.19;100.00;101711.97;5057324;28;20024;-73
2023/10/04 00:20:40;;;;;;;6.88;1.98;;;;;;;10.25;100.00;101706.88;5058269;28;20387;-73
2023/10/04 00:23:13;;;;;;;6.95;1.50;;;;;;;10.34;100.00;101697.06;5040967;28;20131;-74
2023/10/04 00:25:38;;;;;;;8.03;3.00;;;;;;;10.41;100.00;101686.56;5057421;28;20036;-73
2023/10/04 00:28:04;;;;;;;6.18;1.80;;;;;;;10.51;100.00;101688.19;5073549;28;20495;-73
2023/10/04 00:30:30;;;;;;;7.28;2.30;;;;;;;10.56;100.00;101690.44;5057357;28;20463;-75
2023/10/04 00:32:59;;;;;;;3.22;1.20;;;;;;;10.65;100.00;101700.25;5073525;28;20525;-73
2023/10/04 00:35:27;;;;;;;6.93;1.98;;;;;;;10.66;100.00;101698.41;5056861;28;20063;-73
2023/10/04 00:37:57;;;;;;;5.07;1.95;;;;;;;10.56;100.00;101690.44;5073361;28;20039;-73
2023/10/04 00:40:33;;;;;;;6.00;2.03;;;;;;;10.42;100.00;101694.47;5040995;28;20131;-74
2023/10/04 00:43:05;;;;;;;5.72;2.30;;;;;;;10.33;100.00;101698.91;5040702;28;20048;-73
2023/10/04 00:45:34;;;;;;;6.33;2.17;;;;;;;10.36;100.00;101708.53;5073079;28;20071;-74
2023/10/04 00:48:02;;;;;;;3.78;1.60;;;;;;;10.33;100.00;101682.78;5040698;28;20181;-74
2023/10/04 00:50:31;;;;;;;2.78;1.25;;;;;;;10.34;100.00;101697.06;5056695;28;20028;-73
2023/10/04 00:53:06;;;;;;;8.02;1.88;;;;;;;10.29;100.00;101697.56;5040543;28;20129;-74
2023/10/04 00:55:40;;;;;;;4.85;2.10;;;;;;;10.26;100.00;101695.09;5056738;28;20055;-74
2023/10/04 00:58:07;;;;;;;7.05;2.55;;;;;;;10.26;100.00;101702.31;5040362;28;20044;-73
2023/10/04 01:00:34;;;;;;;5.18;2.05;;;;;;;10.17;100.00;101698.72;5040221;28;20074;-73
2023/10/04 01:02:59;;;;;;;3.05;1.33;;;;;;;10.17;100.00;101695.19;5039693;28;20428;-73
2023/10/04 01:05:27;;;;;;;11.15;3.10;;;;;;;10.24;100.00;101707.00;5039873;28;20120;-73
2023/10/04 01:07:56;;;;;;;11.13;3.20;;;;;;;10.16;100.00;101691.66;5056642;28;20463;-73
2023/10/04 01:10:27;;;;;;;5.28;1.73;;;;;;;10.19;100.00;101701.22;5072664;28;20094;-73
2023/10/04 01:12:52;;;;;;;5.60;1.83;;;;;;;10.17;100.00;101692.50;5056890;28;20387;-75
2023/10/04 01:15:31;;;;;;;11.55;2.55;;;;;;;10.14;100.00;101688.25;5056114;28;20111;-73
2023/10/04 01:17:58;;;;;;;8.02;2.17;;;;;;;10.14;100.00;101693.63;5041357;28;20028;-73
2023/10/04 01:20:25;;;;;;;10.65;2.65;;;;;;;10.11;100.00;101689.41;5039466;28;20036;-75
2023/10/04 01:22:51;;;;;;;2.60;1.15;;;;;;;10.13;100.00;101694.63;5039709;28;20040;-75
2023/10/04 01:25:18;;;;;;;10.55;2.17;;;;;;;10.25;100.00;101701.50;5039311;28;20033;-74
2023/10/04 01:27:45;;;;;;;3.50;1.50;;;;;;;10.39;100.00;101707.38;5039846;28;20040;-73
2023/10/04 01:30:13;;;;;;;5.35;2.42;;;;;;;10.43;100.00;101704.25;5039526;28;20487;-73
2023/10/04 01:32:39;;;;;;;3.33;1.45;;;;;;;10.46;100.00;101703.94;5039728;28;20032;-73
2023/10/04 01:35:05;;;;;;;8.07;1.92;;;;;;;10.52;100.00;101702.47;5039548;28;20106;-75
2023/10/04 01:37:34;;;;;;;4.32;1.92;;;;;;;10.54;100.00;101705.88;5039522;28;20491;-74
2023/10/04 01:40:00;;;;;;;5.93;1.90;;;;;;;10.55;100.00;101696.78;5056423;28;20544;-73
2023/10/04 01:42:26;;;;;;;8.15;2.17;;;;;;;10.49;100.00;101690.19;5056383;28;20039;-73
2023/10/04 01:44:55;;;;;;;8.02;2.58;;;;;;;10.49;100.00;101692.03;5055633;28;20395;-74
2023/10/04 01:47:21;;;;;;;7.18;1.70;;;;;;;10.55;100.00;101692.25;5055888;28;20029;-74
2023/10/04 01:49:47;;;;;;;1.95;1.02;;;;;;;10.63;100.00;101693.34;5039321;28;20032;-73
2023/10/04 01:52:16;;;;;;;4.03;1.73;;;;;;;10.73;100.00;101696.81;5055914;28;20051;-73
2023/10/04 01:54:42;;;;;;;4.40;2.08;;;;;;;10.81;100.00;101696.88;5038884;28;20032;-73
2023/10/04 01:57:07;;;;;;;7.22;2.30;;;;;;;10.85;100.00;101698.28;5039139;28;20036;-74
2023/10/04 01:59:33;;;;;;;9.23;2.72;;;;;;;10.89;100.00;101702.31;5039009;28;20093;-74
2023/10/04 02:02:07;;;;;;;6.07;2.20;;;;;;;10.89;100.00;101705.03;5072214;28;20028;-75
2023/10/04 02:04:33;;;;;;;7.28;2.05;;;;;;;10.89;100.00;101707.72;5039772;28;20029;-73
2023/10/04 02:06:58;;;;;;;8.88;1.98;;;;;;;10.91;100.00;101715.63;5039075;28;20438;-73
2023/10/04 02:09:24;;;;;;;7.25;2.40;;;;;;;10.89;100.00;101707.72;5038951;28;20041;-75
2023/10/04 02:11:50;;;;;;;5.40;2.08;;;;;;;10.91;100.00;101718.34;5055669;28;20032;-73
2023/10/04 02:14:16;;;;;;;9.52;2.90;;;;;;;10.82;100.00;101692.34;5038962;28;20079;-74
2023/10/04 02:16:41;;;;;;;11.93;2.22;;;;;;;10.90;100.00;101716.63;5055043;28;20439;-75
2023/10/04 02:19:09;;;;;;;4.93;1.70;;;;;;;10.88;100.00;101708.72;5038588;28;20173;-73
2023/10/04 02:21:35;;;;;;;6.53;2.00;;;;;;;10.75;100.00;101702.88;5072099;28;20024;-73
2023/10/04 02:24:02;;;;;;;5.57;2.13;;;;;;;10.67;100.00;101695.56;5055071;28;20489;-73
2023/10/04 02:26:28;;;;;;;8.13;1.92;;;;;;;10.64;100.00;101695.88;5055551;28;20111;-72
2023/10/04 02:28:55;;;;;;;5.95;1.58;;;;;;;10.63;100.00;101696.88;5040952;28;20033;-73
2023/10/04 02:31:22;;;;;;;10.93;1.98;;;;;;;10.65;100.00;101691.34;5059484;28;20356;-73
2023/10/04 02:33:50;;;;;;;11.88;2.65;;;;;;;10.65;100.00;101691.34;5042458;28;20035;-74
2023/10/04 02:36:16;;;;;;;7.10;2.58;;;;;;;10.60;100.00;101682.91;5059706;28;20036;-73
2023/10/04 02:38:44;;;;;;;8.77;1.98;;;;;;;10.57;100.00;101679.50;5059318;28;20024;-73
2023/10/04 02:41:10;;;;;;;10.15;2.40;;;;;;;10.56;100.00;101683.22;5042751;28;20025;-73
2023/10/04 02:43:38;;;;;;;8.70;1.75;;;;;;;10.52;100.00;101670.22;5042673;28;20032;-73
2023/10/04 02:46:05;;;;;;;6.95;2.92;;;;;;;10.50;100.00;101678.41;5042424;28;20482;-73
2023/10/04 02:48:32;;;;;;;6.57;2.20;;;;;;;10.46;100.00;101666.28;5075535;28;20029;-73
2023/10/04 02:50:58;;;;;;;5.38;1.90;;;;;;;10.43;100.00;101661.22;5059291;28;20028;-73
2023/10/04 02:53:25;;;;;;;11.98;2.38;;;;;;;10.39;100.00;101654.44;5058900;28;20039;-73
2023/10/04 02:55:54;;;;;;;5.68;2.10;;;;;;;10.37;100.00;101653.75;5058948;28;20041;-73
2023/10/04 02:58:23;;;;;;;7.50;2.33;;;;;;;10.34;100.00;101646.00;5059538;28;20036;-72
2023/10/04 03:00:50;;;;;;;6.32;1.88;;;;;;;10.36;100.00;101653.91;5075456;28;20028;-74
2023/10/04 03:03:22;;;;;;;3.83;1.75;;;;;;;10.42;100.00;101651.44;5058380;28;20537;-73
2023/10/04 03:05:54;;;;;;;4.68;2.30;;;;;;;10.44;100.00;101651.31;5042817;28;20135;-73
2023/10/04 03:08:27;;;;;;;4.00;1.95;;;;;;;10.44;100.00;101649.47;5043625;28;20029;-73
2023/10/04 03:10:55;;;;;;;8.13;2.40;;;;;;;10.48;100.00;101642.78;5059228;28;20048;-73
2023/10/04 03:13:28;;;;;;;6.22;2.00;;;;;;;10.51;100.00;101642.47;5059897;28;20035;-74
2023/10/04 03:15:54;;;;;;;8.02;1.67;;;;;;;10.52;100.00;101632.56;5058326;28;20032;-73
2023/10/04 03:18:25;;;;;;;9.75;2.40;;;;;;;10.49;100.00;101633.72;5041719;28;20024;-73
2023/10/04 03:23:35;;;;;;;5.65;2.20;;;;;;;10.49;100.00;101633.72;5059120;28;20056;-73
2023/10/04 03:26:04;;;;;;;6.55;1.80;;;;;;;10.42;100.00;101629.09;5059923;28;20028;-73
2023/10/04 03:28:34;;;;;;;8.07;2.60;;;;;;;10.32;100.00;101630.03;5058078;28;20035;-73
2023/10/04 03:31:18;;;;;;;5.35;1.90;;;;;;;10.22;100.00;101629.22;5059849;28;20040;-74
2023/10/04 03:33:49;;;;;;;6.75;2.10;;;;;;;10.24;100.00;101618.31;5074932;28;20501;-74
2023/10/04 03:36:18;;;;;;;7.75;2.25;;;;;;;10.32;100.00;101627.34;5058613;28;20040;-75
2023/10/04 03:38:44;;;;;;;8.57;1.80;;;;;;;10.36;100.00;101630.56;5074406;28;20028;-75
2023/10/04 03:41:11;;;;;;;3.55;1.85;;;;;;;10.35;100.00;101626.19;5041380;28;20058;-73
2023/10/04 03:43:36;;;;;;;5.03;2.08;;;;;;;10.23;100.00;101627.38;5041580;28;20040;-73
2023/10/04 03:46:24;;;;;;;5.85;1.92;;;;;;;10.11;100.00;101624.06;5041209;28;20504;-73
2023/10/04 03:48:49;;;;;;;12.30;2.13;;;;;;;10.05;100.00;101612.06;5059859;28;20453;-73
2023/10/04 03:51:22;;;;;;;8.05;1.90;;;;;;;10.16;100.00;101620.91;5058139;28;20037;-73
2023/10/04 03:53:50;;;;;;;11.88;2.08;;;;;;;10.27;100.00;101609.97;5058558;28;20040;-73
2023/10/04 03:56:22;;;;;;;6.55;2.05;;;;;;;10.34;100.00;101613.75;5041111;28;20411;-73
2023/10/04 03:58:50;;;;;;;4.65;1.73;;;;;;;10.37;100.00;101612.59;5058005;28;20433;-73
2023/10/04 04:01:16;;;;;;;11.25;2.00;;;;;;;10.42;100.00;101611.13;5040996;28;20028;-73
2023/10/04 04:03:44;;;;;;;8.75;2.20;;;;;;;10.48;100.00;101613.22;5040762;28;20046;-74
2023/10/04 04:06:11;;;;;;;6.47;2.00;;;;;;;10.56;100.00;101612.44;5041224;28;20036;-73
2023/10/04 04:08:38;;;;;;;9.88;1.73;;;;;;;10.60;100.00;101610.28;5041461;28;20036;-73
2023/10/04 04:11:05;;;;;;;8.43;2.63;;;;;;;10.60;100.00;101607.59;5041161;28;20040;-73
2023/10/04 04:13:31;;;;;;;9.50;2.15;;;;;;;10.67;100.00;101605.97;5040815;28;20119;-75
2023/10/04 04:15:57;;;;;;;5.45;2.13;;;;;;;10.78;100.00;101605.72;5057326;28;20121;-73
2023/10/04 04:18:23;;;;;;;12.90;3.08;;;;;;;10.89;100.00;101608.16;5057405;28;20032;-74
2023/10/04 04:20:54;;;;;;;9.00;2.00;;;;;;;11.03;100.00;101605.91;5073732;28;20048;-73
2023/10/04 04:23:21;;;;;;;11.50;2.30;;;;;;;11.12;100.00;101599.56;5041311;28;20094;-73
2023/10/04 04:25:51;;;;;;;8.15;1.75;;;;;;;11.25;100.00;101594.59;5040986;28;20407;-73
2023/10/04 04:28:18;;;;;;;12.25;1.77;;;;;;;11.29;100.00;101604.03;5057442;28;20074;-73
2023/10/04 04:30:46;;;;;;;8.43;2.17;;;;;;;11.32;100.00;101605.56;5073233;28;20124;-73
2023/10/04 04:33:15;;;;;;;11.65;2.50;;;;;;;11.33;100.00;101605.41;5057456;28;20032;-73
2023/10/04 04:38:28;;;;;;;7.93;1.95;;;;;;;11.43;100.00;101591.81;5057948;28;20040;-73
2023/10/04 04:41:15;;;;;;;8.85;2.20;;;;;;;11.45;100.00;101595.19;5060040;28;20043;-73
2023/10/04 04:43:44;;;;;;;5.60;1.92;;;;;;;11.49;100.00;101596.56;5057121;28;20498;-73
2023/10/04 04:46:13;;;;;;;7.82;2.03;;;;;;;11.50;100.00;101597.41;5056863;28;20082;-73
2023/10/04 04:48:40;;;;;;;11.18;2.80;;;;;;;11.53;100.00;101597.09;5057386;28;20036;-73
2023/10/04 04:51:14;;;;;;;4.43;1.65;;;;;;;11.50;100.00;101600.94;5039601;28;20041;-73
2023/10/04 04:53:47;;;;;;;10.45;2.28;;;;;;;11.50;100.00;101600.94;5057953;28;20039;-73
2023/10/04 04:56:14;;;;;;;7.45;2.05;;;;;;;11.50;100.00;101600.94;5057269;28;20472;-73
2023/10/04 04:58:44;;;;;;;4.85;1.75;;;;;;;11.48;100.00;101592.19;5056835;28;20033;-73
2023/10/04 05:01:13;;;;;;;13.35;2.50;;;;;;;11.44;100.00;101588.97;5056287;28;20055;-73
2023/10/04 05:03:43;;;;;;;6.30;2.20;;;;;;;11.40;100.00;101590.28;5056434;28;20448;-73
2023/10/04 05:06:21;;;;;;;7.22;1.65;;;;;;;11.35;100.00;101584.56;5056818;28;20024;-73
2023/10/04 05:08:46;;;;;;;4.47;2.55;;;;;;;11.28;100.00;101586.19;5057845;28;20036;-73
2023/10/04 05:11:12;;;;;;;9.57;2.65;;;;;;;11.24;100.00;101584.81;5039984;28;20463;-73
2023/10/04 05:13:39;;;;;;;14.05;2.20;;;;;;;11.25;100.00;101585.69;5056109;28;20037;-73
2023/10/04 05:16:04;;;;;;;7.43;1.90;;;;;;;11.18;100.00;101586.31;5072773;28;20475;-73
2023/10/04 05:18:30;;;;;;;3.30;1.83;;;;;;;11.16;100.00;101590.16;5039826;28;20081;-73
2023/10/04 05:20:56;;;;;;;8.07;2.70;;;;;;;11.12;100.00;101586.97;5039860;28;20026;-73
2023/10/04 05:23:29;;;;;;;16.77;2.55;;;;;;;11.05;100.00;101590.44;5039569;28;20360;-73
2023/10/04 05:25:56;;;;;;;9.05;2.80;;;;;;;10.94;100.00;101589.69;5072533;28;20166;-74
2023/10/04 05:28:22;;;;;;;8.48;2.05;;;;;;;10.79;100.00;101580.50;5055852;28;20111;-73
2023/10/04 05:30:50;;;;;;;4.22;1.45;;;;;;;10.79;100.00;101581.34;5039485;28;20028;-74
2023/10/04 05:33:20;;;;;;;13.38;2.50;;;;;;;10.78;100.00;101579.66;5040517;28;20036;-73
2023/10/04 05:35:53;;;;;;;11.88;2.42;;;;;;;10.68;100.00;101580.75;5056092;28;20090;-74
2023/10/04 05:38:19;;;;;;;16.80;2.67;;;;;;;10.56;100.00;101578.31;5072090;28;20029;-73
2023/10/04 05:40:46;;;;;;;8.52;2.20;;;;;;;10.57;100.00;101587.22;5039478;28;20463;-73
2023/10/04 05:43:14;;;;;;;8.15;1.80;;;;;;;10.60;100.00;101592.28;5055744;28;20463;-75
2023/10/04 05:45:43;;;;;;;7.07;2.20;;;;;;;10.67;100.00;101601.44;5072127;28;20471;-74
2023/10/04 05:48:10;;;;;;;11.05;2.47;;;;;;;10.74;100.00;101602.50;5039505;28;20044;-73
2023/10/04 05:50:36;;;;;;;11.23;2.38;;;;;;;10.74;100.00;101596.25;5072377;28;20024;-72
2023/10/04 05:53:06;;;;;;;6.80;2.25;;;;;;;10.66;100.00;101591.66;5039075;28;20044;-73
2023/10/04 05:55:34;;;;;;;7.38;2.53;;;;;;;10.56;100.00;101590.94;5055670;28;20128;-73
2023/10/04 05:58:00;;;;;;;16.08;2.55;;;;;;;10.52;100.00;101590.38;5040101;28;20041;-73
2023/10/04 06:00:41;;;;;;;5.35;1.77;;;;;;;10.45;100.00;101592.03;5039185;28;20128;-73
2023/10/04 06:03:11;;;;;;;11.95;2.75;;;;;;;10.35;100.00;101588.56;5056852;28;20039;-73
2023/10/04 06:05:40;;;;;;;7.97;1.98;;;;;;;10.23;100.00;101579.84;5038864;28;20063;-73
2023/10/04 06:08:15;;;;;;;10.30;2.88;;;;;;;10.18;100.00;101571.38;5038794;28;20127;-73
2023/10/04 06:10:42;;;;;;;14.48;2.47;;;;;;;10.13;100.00;101571.88;5056866;28;20130;-73
2023/10/04 06:13:11;;;;;;;8.18;2.35;;;;;;;10.18;100.00;101570.56;5038894;28;20368;-73
2023/10/04 06:15:47;;;;;;;10.45;2.60;;;;;;;10.13;100.00;101571.00;5039539;28;20426;-72
2023/10/04 06:18:16;;;;;;;12.23;1.95;;;;;;;10.16;100.00;101573.41;5072055;28;20525;-73
2023/10/04 06:20:50;;;;;;;9.02;2.78;;;;;;;10.27;100.00;101569.66;5041397;28;20517;-73
2023/10/04 06:23:21;;;;;;;12.30;2.75;;;;;;;10.24;100.00;101580.69;5054885;28;20044;-73
2023/10/04 06:25:48;;;;;;;6.63;1.67;;;;;;;10.34;100.00;101574.25;5055493;28;20029;-72
2023/10/04 06:28:16;;;;;;;4.65;1.25;;;;;;;10.37;100.00;101570.41;5022099;28;20040;-72
2023/10/04 06:30:42;;;;;;;1.65;1.08;;;;;;;10.36;100.00;101566.03;5054958;28;20055;-73
2023/10/04 06:33:10;;;;;;;8.18;2.08;;;;;;;10.34;100.00;101570.72;5055341;28;20421;-74
2023/10/04 06:35:37;;;;;;;8.75;2.22;;;;;;;10.32;100.00;101570.91;5072031;28;20025;-73
2023/10/04 06:38:06;;;;;;;6.05;1.50;;;;;;;10.28;100.00;101574.03;5072102;28;20071;-72
2023/10/04 06:40:32;;;;;;;5.85;2.05;;;;;;;10.28;100.00;101582.09;5022043;28;20055;-72
2023/10/04 06:43:08;;;;;;;7.13;1.80;;;;;;;10.32;100.00;101578.13;5037245;28;20036;-75
2023/10/04 06:45:36;;;;;;;6.45;1.60;;;;;;;10.33;100.00;101574.44;5039347;28;20563;-72
2023/10/04 06:48:05;;;;;;;12.48;2.28;;;;;;;10.35;100.00;101588.56;5038452;28;20036;-73
2023/10/04 06:50:38;;;;;;;11.75;1.77;;;;;;;10.40;100.00;101574.63;5039353;28;20059;-72
2023/10/04 06:53:05;;;;;;;8.07;2.03;;;;;;;10.44;100.00;101582.25;5054972;28;20058;-72
2023/10/04 06:55:34;;;;;;;7.20;1.92;;;;;;;10.43;100.00;101588.63;5055470;28;20028;-72
2023/10/04 06:58:04;;;;;;;15.63;1.80;;;;;;;10.49;100.00;101588.00;5055182;28;20032;-72
2023/10/04 07:00:37;;;;;;;11.25;2.35;;;;;;;10.61;100.00;101583.25;5056030;28;20064;-73
2023/10/04 07:03:04;;;;;;;6.80;2.00;;;;;;;10.64;100.00;101584.75;5054761;28;20032;-72
2023/10/04 07:05:35;;;;;;;1.42;0.80;;;;;;;10.59;100.00;101573.66;5021861;28;20046;-73
2023/10/04 07:08:01;;;;;;;6.72;1.67;;;;;;;10.60;100.00;101583.38;5038434;28;20068;-73
2023/10/04 07:10:28;;;;;;;9.85;1.95;;;;;;;10.55;100.00;101583.84;5055100;28;20044;-73
2023/10/04 07:12:57;;;;;;;7.80;2.00;;;;;;;10.57;100.00;101590.75;5021855;28;20379;-72
2023/10/04 07:15:24;;;;;;;4.50;1.70;;;;;;;10.64;100.00;101593.69;5056673;28;20033;-73
2023/10/04 07:17:53;;;;;;;1.45;0.57;;;;;;;10.66;100.00;101591.66;5041602;28;20036;-73
2023/10/04 07:20:19;;;;;;;3.50;1.42;;;;;;;10.82;100.00;101606.25;5041670;28;20028;-73
2023/10/04 07:22:47;;;;;;;3.92;1.48;;;;;;;10.92;100.00;101602.44;5041116;28;20060;-75
2023/10/04 07:25:14;;;;;;;4.03;0.70;;;;;;;10.98;100.00;101612.59;5073231;28;20024;-74
2023/10/04 07:27:45;;;;;;;5.93;1.52;;;;;;;11.11;100.00;101616.72;5041766;28;20127;-74
2023/10/04 07:30:14;;;;;;;4.07;1.35;;;;;;;11.20;100.00;101611.22;5041665;28;20067;-73
2023/10/04 07:32:41;;;;;;;7.90;1.77;;;;;;;11.24;100.00;101611.75;5042581;28;20134;-73
2023/10/04 07:35:12;;;;;;;8.35;1.48;;;;;;;11.27;100.00;101616.81;5042429;28;20082;-74
2023/10/04 07:37:41;;;;;;;2.65;1.40;;;;;;;11.33;100.00;101604.56;5041686;28;20436;-74
2023/10/04 07:40:13;;;;;;;2.78;1.30;;;;;;;11.39;100.00;101617.38;5074615;28;20040;-73
2023/10/04 07:42:50;;;;;;;;;;;;;;;;;;;;;
2023/10/04 07:45:27;;;;;;;11.90;1.70;;;;;;;11.78;100.00;101608.81;5060449;28;20024;-74
2023/10/04 07:48:03;;;;;;;8.15;1.98;;;;;;;12.23;100.00;101592.28;5044423;28;20115;-74
2023/10/04 07:50:29;;;;;;;9.02;2.05;;;;;;;12.69;100.00;101606.13;5041730;28;20043;-74
2023/10/04 07:52:56;;;;;;;5.85;1.77;;;;;;;13.16;100.00;101600.00;5041336;28;20123;-74
2023/10/04 07:55:25;;;;;;;12.45;1.90;;;;;;;13.37;100.00;101599.47;5058072;28;20043;-74
2023/10/04 07:57:53;;;;;;;8.98;1.90;;;;;;;13.14;100.00;101596.63;5040836;28;20041;-73
2023/10/04 08:00:20;;;;;;;7.25;1.75;;;;;;;13.30;100.00;101603.88;5057427;28;20028;-74
2023/10/04 08:02:50;;;;;;;8.13;1.80;;;;;;;13.10;100.00;101595.31;5057099;28;20060;-73
2023/10/04 08:05:19;;;;;;;7.15;2.08;;;;;;;12.84;100.00;101600.91;5040831;28;20028;-74
2023/10/04 08:07:54;;;;;;;13.80;2.15;;;;;;;12.53;100.00;101598.03;5057695;28;20044;-72
2023/10/04 08:10:25;;;;;;;9.23;2.28;;;;;;;12.41;100.00;101602.06;5041174;28;20044;-73
2023/10/04 08:12:52;;;;;;;6.57;2.00;;;;;;;12.53;100.00;101600.72;5057893;28;20040;-73
2023/10/04 08:15:19;;;;;;;3.72;1.27;;;;;;;12.95;100.00;101599.72;5057526;28;20036;-72
2023/10/04 08:17:52;;;;;;;7.07;1.65;;;;;;;12.72;100.00;101596.84;5057295;28;20115;-73
2023/10/04 08:20:19;;;;;;;6.38;1.50;;;;;;;12.56;100.00;101586.91;5041293;28;20483;-75
2023/10/04 08:22:45;;;;;;;6.88;1.90;;;;;;;12.54;100.00;101592.50;5056846;28;20032;-73
2023/10/04 08:25:13;;;;;;;10.80;2.35;;;;;;;12.74;100.00;101590.28;5040154;28;20029;-73
2023/10/04 08:27:48;;;;;;;8.73;2.05;;;;;;;12.95;100.00;101589.75;5023215;28;20028;-73
2023/10/04 08:30:15;;;;;;;1.08;0.93;;;;;;;13.06;100.00;101598.50;5057157;28;20040;-73
2023/10/04 08:32:46;;;;;;;9.73;1.55;;;;;;;13.12;100.00;101585.16;5040048;28;20098;-74
2023/10/04 08:35:24;;;;;;;6.07;1.50;;;;;;;13.36;100.00;101588.81;5057556;28;20032;-74
2023/10/04 08:37:54;;;;;;;5.97;1.23;;;;;;;13.63;100.00;101596.50;5057422;28;20029;-73
2023/10/04 08:40:21;;;;;;;1.88;0.90;;;;;;;13.72;100.00;101596.47;5057096;28;20074;-73
2023/10/04 08:42:50;;;;;;;2.53;0.98;;;;;;;13.81;100.00;101600.81;5073655;28;20067;-73
2023/10/04 08:45:17;;;;;;;10.15;2.10;;;;;;;13.88;100.00;101596.38;5057077;28;20131;-73
2023/10/04 08:47:59;;;;;;;4.97;1.42;;;;;;;13.97;100.00;101603.44;5040242;28;20043;-73
2023/10/04 08:50:40;;;;;;;4.25;1.05;;;;;;;14.06;100.00;101602.38;5057442;28;20047;-73
2023/10/04 08:53:14;;;;;;;5.80;1.85;;;;;;;14.14;100.00;101600.66;5074373;28;20028;-73
2023/10/04 08:55:45;;;;;;;5.35;1.92;;;;;;;14.29;100.00;101602.41;5056627;28;20080;-73
2023/10/04 08:58:10;;;;;;;6.38;1.70;;;;;;;14.27;100.00;101607.13;5074224;28;20112;-73
2023/10/04 09:00:41;;;;;;;9.57;2.42;;;;;;;14.25;100.00;101594.81;5056220;28;20036;-74
2023/10/04 09:03:10;;;;;;;10.50;1.90;;;;;;;14.20;100.00;101597.22;5024578;28;20102;-73
2023/10/04 09:05:37;;;;;;;4.78;1.60;;;;;;;14.18;100.00;101591.13;5056199;28;20028;-73
2023/10/04 09:08:04;;;;;;;5.15;1.88;;;;;;;14.27;100.00;101592.78;5040010;28;20566;-73
2023/10/04 09:10:33;;;;;;;7.68;2.03;;;;;;;14.44;100.00;101597.03;5072652;28;20031;-73
2023/10/04 09:13:03;;;;;;;3.95;1.83;;;;;;;14.51;100.00;101589.03;5056804;28;20028;-73
2023/10/04 09:15:30;;;;;;;9.32;2.25;;;;;;;14.69;100.00;101588.78;5040332;28;20037;-73
2023/10/04 09:17:57;;;;;;;10.77;2.00;;;;;;;14.75;100.00;101588.03;5056278;28;20317;-73
2023/10/04 09:20:30;;;;;;;6.50;2.05;;;;;;;14.86;100.00;101582.16;5056111;28;20183;-74
2023/10/04 09:22:59;;;;;;;11.23;2.63;;;;;;;14.95;100.00;101582.91;5056506;28;20050;-73
2023/10/04 09:25:39;;;;;;;4.22;1.67;;;;;;;15.03;100.00;101590.13;5039716;28;20115;-73
2023/10/04 09:28:07;;;;;;;9.75;2.63;;;;;;;15.38;100.00;101594.81;5072346;28;20516;-73
2023/10/04 09:30:36;;;;;;;6.47;2.58;;;;;;;15.59;100.00;101590.53;5056056;28;20429;-73
2023/10/04 09:33:04;;;;;;;5.93;2.47;;;;;;;15.50;100.00;101597.88;5056476;28;20025;-73
2023/10/04 09:35:45;;;;;;;9.18;2.28;;;;;;;15.27;100.00;101592.59;5072353;28;20398;-73
2023/10/04 09:38:15;;;;;;;13.65;2.47;;;;;;;15.08;100.00;101599.41;5039774;28;20028;-73
2023/10/04 09:40:53;;;;;;;11.13;2.50;;;;;;;15.01;100.00;101603.03;5072462;28;20119;-73
2023/10/04 09:43:32;;;;;;;10.57;2.25;;;;;;;14.98;100.00;101606.94;5055504;28;20063;-73
2023/10/04 09:45:58;;;;;;;10.38;2.45;;;;;;;15.08;100.00;101602.09;5071707;28;20427;-75
2023/10/04 09:48:30;;;;;;;11.10;2.38;;;;;;;15.06;100.00;101603.31;5038455;28;20115;-75
2023/10/04 09:51:01;;;;;;;10.05;2.50;;;;;;;14.89;100.00;101598.03;5054307;28;20055;-77
2023/10/04 09:53:31;;;;;;;7.55;2.60;;;;;;;14.80;100.00;101601.03;5054141;28;20029;-73
2023/10/04 09:56:01;;;;;;;9.52;2.40;;;;;;;14.63;100.00;101597.59;5054116;28;20048;-73
2023/10/04 09:58:30;;;;;;;8.65;2.13;;;;;;;14.37;100.00;101593.38;5053268;28;20029;-73
2023/10/04 10:01:12;;;;;;;6.85;2.35;;;;;;;14.28;100.00;101595.28;5054762;28;20028;-75
2023/10/04 10:04:07;;;;;;;11.95;2.30;;;;;;;14.16;100.00;101590.50;5055503;28;20040;-74
2023/10/04 10:06:47;;;;;;;11.07;2.80;;;;;;;14.34;100.00;101596.44;5047994;28;20040;-74
2023/10/04 10:09:18;;;;;;;10.88;2.65;;;;;;;14.36;100.00;101598.97;5071383;28;20025;-73
2023/10/04 10:11:55;;;;;;;;;;;;;;;;;;;;;
2023/10/04 10:14:22;;;;;;;7.93;2.67;;;;;;;14.58;100.00;101587.34;5071894;28;20399;-73
2023/10/04 10:16:54;;;;;;;12.90;3.40;;;;;;;14.82;100.00;101596.25;5039272;28;20045;-73
2023/10/04 10:19:28;;;;;;;8.85;2.20;;;;;;;15.15;100.00;101594.06;5055586;28;20036;-75
2023/10/04 10:22:06;;;;;;;12.65;2.30;;;;;;;15.47;100.00;101598.28;5039877;28;20399;-75
2023/10/04 10:24:32;;;;;;;15.00;2.20;;;;;;;15.78;100.00;101595.38;5038929;28;20031;-75
2023/10/04 10:27:09;;;;;;;16.45;3.33;;;;;;;16.10;100.00;101598.66;5055563;28;20123;-75
2023/10/04 10:29:36;;;;;;;11.45;2.67;;;;;;;15.89;100.00;101598.63;5054105;28;20298;-75
2023/10/04 10:32:06;;;;;;;10.52;1.77;;;;;;;16.39;100.00;101603.16;5038667;28;20032;-75
2023/10/04 10:34:38;;;;;;;;;;;;;;;16.36;100.00;101594.56;5072241;28;20094;-75
2023/10/04 10:37:18;;;;;;;12.35;2.88;;;;;;;16.80;100.00;101586.19;5071881;28;19915;-75
2023/10/04 10:39:46;;;;;;;11.50;2.65;;;;;;;17.09;100.00;101585.19;5023924;28;20029;-75
2023/10/04 10:42:12;;;;;;;6.22;2.03;;;;;;;17.10;100.00;101586.84;5071674;28;20455;-75
2023/10/04 10:44:39;;;;;;;9.23;2.70;;;;;;;17.42;100.00;101572.81;5055276;28;20090;-75
2023/10/04 10:47:19;;;;;;;13.30;3.80;;;;;;;17.28;100.00;101578.19;5055444;28;20067;-75
2023/10/04 10:49:52;;;;;;;9.43;2.15;;;;;;;16.92;100.00;101571.03;5041095;28;20418;-75
2023/10/04 10:52:23;;;;;;;6.25;2.08;;;;;;;16.78;100.00;101569.28;5075392;28;20510;-75
2023/10/04 10:54:52;;;;;;;7.45;2.45;;;;;;;16.81;100.00;101582.47;5042740;28;20127;-75
2023/10/04 10:57:21;;;;;;;10.32;3.25;;;;;;;16.70;100.00;101574.81;5059134;28;20078;-75
2023/10/04 10:59:53;;;;;;;7.78;1.92;;;;;;;16.75;100.00;101576.94;5075235;28;20098;-75
2023/10/04 11:02:20;;;;;;;10.00;2.50;;;;;;;17.48;100.00;101577.44;5042433;28;20471;-75
2023/10/04 11:04:45;;;;;;;11.15;3.03;;;;;;;17.61;100.00;101577.50;5058777;28;20048;-74
2023/10/04 11:07:11;;;;;;;9.07;2.13;;;;;;;16.90;100.00;101566.84;5042337;28;20028;-75
2023/10/04 11:09:40;;;;;;;13.00;3.28;;;;;;;16.47;100.00;101575.03;5041740;28;20499;-75
2023/10/04 11:12:09;;;;;;;9.25;2.95;;;;;;;16.49;100.00;101578.41;5075321;28;20028;-75
2023/10/04 11:14:38;;;;;;;12.40;2.83;;;;;;;17.09;100.00;101568.88;5075118;28;20029;-75
2023/10/04 11:17:04;;;;;;;8.60;2.88;;;;;;;17.14;100.00;101560.94;5059030;28;20082;-75
2023/10/04 11:19:32;;;;;;;9.70;2.67;;;;;;;16.81;100.00;101557.19;5058643;28;20045;-75
2023/10/04 11:21:59;;;;;;;9.25;2.95;;;;;;;16.25;100.00;101566.91;5058100;28;20041;-75
2023/10/04 11:24:26;;;;;;;8.70;2.45;;;;;;;16.08;100.00;101560.03;5074871;28;20044;-75
2023/10/04 11:26:56;;;;;;;10.73;3.03;;;;;;;15.83;100.00;101570.41;5041968;28;20119;-75
2023/10/04 11:29:28;;;;;;;9.25;2.97;;;;;;;15.67;100.00;101566.00;5059727;28;20033;-74
2023/10/04 11:31:55;;;;;;;18.75;3.75;;;;;;;15.80;100.00;101563.50;5074978;28;20115;-74